sensor_id;sensor_type;location;lat;lon;timestamp;P1;durP1;ratioP1;P2;durP2;ratioP2
70549;SDS011;58101;48.658;2.328;2023-03-01T00:02:06;13.93;;;5.65;;
70549;SDS011;58101;48.658;2.328;2023-03-01T00:04:32;14.15;;;5.85;;
70549;SDS011;58101;48.658;2.328;2023-03-01T00:06:57;16.38;;;5.90;;
70549;SDS011;58101;48.658;2.328;2023-03-01T00:09:23;12.38;;;5.82;;
70549;SDS011;58101;48.658;2.328;2023-03-01T00:11:49;11.82;;;5.28;;
70549;SDS011;58101;48.658;2.328;2023-03-01T00:14:15;14.00;;;5.70;;
70549;SDS011;58101;48.658;2.328;2023-03-01T00:16:44;14.05;;;5.55;;
70549;SDS011;58101;48.658;2.328;2023-03-01T00:19:14;14.38;;;6.10;;
70549;SDS011;58101;48.658;2.328;2023-03-01T00:21:42;14.40;;;5.32;;
70549;SDS011;58101;48.658;2.328;2023-03-01T00:24:08;13.45;;;5.20;;
70549;SDS011;58101;48.658;2.328;2023-03-01T00:26:34;12.10;;;4.93;;
70549;SDS011;58101;48.658;2.328;2023-03-01T00:29:00;12.65;;;5.15;;
70549;SDS011;58101;48.658;2.328;2023-03-01T00:31:30;12.35;;;5.03;;
70549;SDS011;58101;48.658;2.328;2023-03-01T00:33:57;14.05;;;5.30;;
70549;SDS011;58101;48.658;2.328;2023-03-01T00:36:29;15.25;;;5.20;;
70549;SDS011;58101;48.658;2.328;2023-03-01T00:38:56;16.70;;;7.10;;
70549;SDS011;58101;48.658;2.328;2023-03-01T00:41:22;15.88;;;7.20;;
70549;SDS011;58101;48.658;2.328;2023-03-01T00:43:48;16.65;;;6.50;;
70549;SDS011;58101;48.658;2.328;2023-03-01T00:46:16;16.23;;;6.78;;
70549;SDS011;58101;48.658;2.328;2023-03-01T00:48:43;17.02;;;6.63;;
70549;SDS011;58101;48.658;2.328;2023-03-01T00:51:14;15.77;;;6.70;;
70549;SDS011;58101;48.658;2.328;2023-03-01T00:53:41;15.18;;;6.03;;
70549;SDS011;58101;48.658;2.328;2023-03-01T00:56:08;17.77;;;6.65;;
70549;SDS011;58101;48.658;2.328;2023-03-01T01:01:06;15.30;;;5.43;;
70549;SDS011;58101;48.658;2.328;2023-03-01T01:03:42;11.68;;;4.82;;
70549;SDS011;58101;48.658;2.328;2023-03-01T01:06:20;14.25;;;5.30;;
70549;SDS011;58101;48.658;2.328;2023-03-01T01:08:46;13.70;;;5.32;;
70549;SDS011;58101;48.658;2.328;2023-03-01T01:11:12;13.13;;;5.35;;
70549;SDS011;58101;48.658;2.328;2023-03-01T01:13:39;14.02;;;5.55;;
70549;SDS011;58101;48.658;2.328;2023-03-01T01:16:05;15.95;;;5.53;;
70549;SDS011;58101;48.658;2.328;2023-03-01T01:18:32;14.38;;;5.72;;
70549;SDS011;58101;48.658;2.328;2023-03-01T01:21:02;15.38;;;5.30;;
70549;SDS011;58101;48.658;2.328;2023-03-01T01:23:29;13.70;;;5.25;;
70549;SDS011;58101;48.658;2.328;2023-03-01T01:25:55;11.88;;;4.72;;
70549;SDS011;58101;48.658;2.328;2023-03-01T01:28:21;13.63;;;5.53;;
70549;SDS011;58101;48.658;2.328;2023-03-01T01:30:46;13.05;;;4.85;;
70549;SDS011;58101;48.658;2.328;2023-03-01T01:33:12;14.85;;;5.47;;
70549;SDS011;58101;48.658;2.328;2023-03-01T01:35:37;12.65;;;4.82;;
70549;SDS011;58101;48.658;2.328;2023-03-01T01:38:03;14.90;;;5.25;;
70549;SDS011;58101;48.658;2.328;2023-03-01T01:40:29;13.32;;;5.30;;
70549;SDS011;58101;48.658;2.328;2023-03-01T01:42:54;12.55;;;5.18;;
70549;SDS011;58101;48.658;2.328;2023-03-01T01:45:24;12.48;;;4.82;;
70549;SDS011;58101;48.658;2.328;2023-03-01T01:48:00;12.75;;;4.85;;
70549;SDS011;58101;48.658;2.328;2023-03-01T01:53:04;13.60;;;4.88;;
70549;SDS011;58101;48.658;2.328;2023-03-01T01:55:33;12.50;;;5.15;;
70549;SDS011;58101;48.658;2.328;2023-03-01T01:58:02;12.88;;;4.90;;
70549;SDS011;58101;48.658;2.328;2023-03-01T02:00:32;12.85;;;5.28;;
70549;SDS011;58101;48.658;2.328;2023-03-01T02:03:11;13.85;;;5.20;;
70549;SDS011;58101;48.658;2.328;2023-03-01T02:08:31;13.90;;;5.20;;
70549;SDS011;58101;48.658;2.328;2023-03-01T02:11:01;12.52;;;5.22;;
70549;SDS011;58101;48.658;2.328;2023-03-01T02:13:29;12.35;;;4.97;;
70549;SDS011;58101;48.658;2.328;2023-03-01T02:15:56;13.07;;;5.35;;
70549;SDS011;58101;48.658;2.328;2023-03-01T02:18:22;16.45;;;5.30;;
70549;SDS011;58101;48.658;2.328;2023-03-01T02:23:24;15.10;;;5.10;;
70549;SDS011;58101;48.658;2.328;2023-03-01T02:26:07;17.63;;;5.63;;
70549;SDS011;58101;48.658;2.328;2023-03-01T02:28:40;13.30;;;4.90;;
70549;SDS011;58101;48.658;2.328;2023-03-01T02:31:09;15.30;;;5.25;;
70549;SDS011;58101;48.658;2.328;2023-03-01T02:33:57;12.55;;;5.05;;
70549;SDS011;58101;48.658;2.328;2023-03-01T02:36:24;18.40;;;5.90;;
70549;SDS011;58101;48.658;2.328;2023-03-01T02:38:55;14.85;;;5.20;;
70549;SDS011;58101;48.658;2.328;2023-03-01T02:41:22;13.65;;;5.15;;
70549;SDS011;58101;48.658;2.328;2023-03-01T02:43:51;15.02;;;5.03;;
70549;SDS011;58101;48.658;2.328;2023-03-01T02:46:21;13.70;;;4.95;;
70549;SDS011;58101;48.658;2.328;2023-03-01T02:48:50;13.60;;;5.20;;
70549;SDS011;58101;48.658;2.328;2023-03-01T02:56:30;13.95;;;5.22;;
70549;SDS011;58101;48.658;2.328;2023-03-01T02:58:55;13.63;;;5.20;;
70549;SDS011;58101;48.658;2.328;2023-03-01T03:01:25;12.77;;;5.07;;
70549;SDS011;58101;48.658;2.328;2023-03-01T03:04:11;13.02;;;5.00;;
70549;SDS011;58101;48.658;2.328;2023-03-01T03:06:42;14.75;;;5.30;;
70549;SDS011;58101;48.658;2.328;2023-03-01T03:09:12;13.82;;;4.85;;
70549;SDS011;58101;48.658;2.328;2023-03-01T03:11:38;21.50;;;6.80;;
70549;SDS011;58101;48.658;2.328;2023-03-01T03:14:05;18.58;;;5.72;;
70549;SDS011;58101;48.658;2.328;2023-03-01T03:16:37;15.38;;;5.57;;
70549;SDS011;58101;48.658;2.328;2023-03-01T03:19:14;14.23;;;5.47;;
70549;SDS011;58101;48.658;2.328;2023-03-01T03:21:43;14.38;;;5.47;;
70549;SDS011;58101;48.658;2.328;2023-03-01T03:24:09;13.20;;;5.05;;
70549;SDS011;58101;48.658;2.328;2023-03-01T03:26:35;11.68;;;4.95;;
70549;SDS011;58101;48.658;2.328;2023-03-01T03:29:01;14.68;;;5.53;;
70549;SDS011;58101;48.658;2.328;2023-03-01T03:31:26;15.80;;;6.03;;
70549;SDS011;58101;48.658;2.328;2023-03-01T03:33:52;15.23;;;5.97;;
70549;SDS011;58101;48.658;2.328;2023-03-01T03:36:21;15.07;;;5.45;;
70549;SDS011;58101;48.658;2.328;2023-03-01T03:38:48;14.05;;;5.53;;
70549;SDS011;58101;48.658;2.328;2023-03-01T03:41:14;13.73;;;5.10;;
70549;SDS011;58101;48.658;2.328;2023-03-01T03:43:41;15.77;;;5.97;;
70549;SDS011;58101;48.658;2.328;2023-03-01T03:46:08;15.50;;;5.93;;
70549;SDS011;58101;48.658;2.328;2023-03-01T03:48:36;13.43;;;5.50;;
70549;SDS011;58101;48.658;2.328;2023-03-01T03:51:05;12.55;;;5.57;;
70549;SDS011;58101;48.658;2.328;2023-03-01T03:53:31;17.15;;;5.72;;
70549;SDS011;58101;48.658;2.328;2023-03-01T03:55:58;14.13;;;5.15;;
70549;SDS011;58101;48.658;2.328;2023-03-01T03:58:24;15.10;;;5.93;;
70549;SDS011;58101;48.658;2.328;2023-03-01T04:00:51;16.95;;;5.90;;
70549;SDS011;58101;48.658;2.328;2023-03-01T04:03:21;15.65;;;5.50;;
70549;SDS011;58101;48.658;2.328;2023-03-01T04:05:47;20.17;;;7.35;;
70549;SDS011;58101;48.658;2.328;2023-03-01T04:08:15;18.02;;;6.32;;
70549;SDS011;58101;48.658;2.328;2023-03-01T04:10:45;18.35;;;5.70;;
70549;SDS011;58101;48.658;2.328;2023-03-01T04:13:13;14.25;;;5.13;;
70549;SDS011;58101;48.658;2.328;2023-03-01T04:15:41;11.77;;;5.13;;
70549;SDS011;58101;48.658;2.328;2023-03-01T04:18:12;15.48;;;5.63;;
70549;SDS011;58101;48.658;2.328;2023-03-01T04:20:38;13.88;;;5.53;;
70549;SDS011;58101;48.658;2.328;2023-03-01T04:28:22;12.55;;;5.40;;
70549;SDS011;58101;48.658;2.328;2023-03-01T04:30:49;15.57;;;5.50;;
70549;SDS011;58101;48.658;2.328;2023-03-01T04:33:16;15.75;;;5.30;;
70549;SDS011;58101;48.658;2.328;2023-03-01T04:35:42;15.40;;;5.65;;
70549;SDS011;58101;48.658;2.328;2023-03-01T04:38:08;16.10;;;5.47;;
70549;SDS011;58101;48.658;2.328;2023-03-01T04:40:34;15.93;;;5.28;;
70549;SDS011;58101;48.658;2.328;2023-03-01T04:43:00;14.52;;;5.45;;
70549;SDS011;58101;48.658;2.328;2023-03-01T04:45:27;14.68;;;5.35;;
70549;SDS011;58101;48.658;2.328;2023-03-01T04:47:53;15.48;;;5.65;;
70549;SDS011;58101;48.658;2.328;2023-03-01T04:50:19;15.55;;;5.57;;
70549;SDS011;58101;48.658;2.328;2023-03-01T04:52:45;13.82;;;5.63;;
70549;SDS011;58101;48.658;2.328;2023-03-01T04:55:12;15.30;;;5.63;;
70549;SDS011;58101;48.658;2.328;2023-03-01T04:57:39;16.10;;;5.28;;
70549;SDS011;58101;48.658;2.328;2023-03-01T05:00:06;15.40;;;6.20;;
70549;SDS011;58101;48.658;2.328;2023-03-01T05:05:18;14.93;;;5.53;;
70549;SDS011;58101;48.658;2.328;2023-03-01T05:08:06;15.43;;;5.32;;
70549;SDS011;58101;48.658;2.328;2023-03-01T05:10:33;15.05;;;5.70;;
70549;SDS011;58101;48.658;2.328;2023-03-01T05:13:00;15.38;;;5.78;;
70549;SDS011;58101;48.658;2.328;2023-03-01T05:15:28;15.63;;;5.65;;
70549;SDS011;58101;48.658;2.328;2023-03-01T05:17:55;14.35;;;5.82;;
70549;SDS011;58101;48.658;2.328;2023-03-01T05:20:26;14.32;;;5.88;;
70549;SDS011;58101;48.658;2.328;2023-03-01T05:22:58;13.65;;;5.75;;
70549;SDS011;58101;48.658;2.328;2023-03-01T05:25:24;15.93;;;5.97;;
70549;SDS011;58101;48.658;2.328;2023-03-01T05:27:50;16.17;;;6.15;;
70549;SDS011;58101;48.658;2.328;2023-03-01T05:30:19;17.42;;;5.90;;
70549;SDS011;58101;48.658;2.328;2023-03-01T05:32:46;14.40;;;6.03;;
70549;SDS011;58101;48.658;2.328;2023-03-01T05:35:14;16.00;;;6.43;;
70549;SDS011;58101;48.658;2.328;2023-03-01T05:37:41;20.02;;;6.72;;
70549;SDS011;58101;48.658;2.328;2023-03-01T05:40:13;19.45;;;6.53;;
70549;SDS011;58101;48.658;2.328;2023-03-01T05:45:11;16.63;;;6.50;;
70549;SDS011;58101;48.658;2.328;2023-03-01T05:47:42;16.02;;;6.00;;
70549;SDS011;58101;48.658;2.328;2023-03-01T05:50:19;16.25;;;6.43;;
70549;SDS011;58101;48.658;2.328;2023-03-01T05:52:46;17.00;;;6.68;;
70549;SDS011;58101;48.658;2.328;2023-03-01T05:55:16;17.23;;;6.32;;
70549;SDS011;58101;48.658;2.328;2023-03-01T05:57:43;15.70;;;6.55;;
70549;SDS011;58101;48.658;2.328;2023-03-01T06:00:09;15.60;;;6.65;;
70549;SDS011;58101;48.658;2.328;2023-03-01T06:02:36;17.98;;;6.38;;
70549;SDS011;58101;48.658;2.328;2023-03-01T06:05:02;15.93;;;5.78;;
70549;SDS011;58101;48.658;2.328;2023-03-01T06:07:29;15.80;;;6.10;;
70549;SDS011;58101;48.658;2.328;2023-03-01T06:09:55;17.83;;;6.93;;
70549;SDS011;58101;48.658;2.328;2023-03-01T06:12:20;15.90;;;6.65;;
70549;SDS011;58101;48.658;2.328;2023-03-01T06:14:46;16.52;;;6.80;;
70549;SDS011;58101;48.658;2.328;2023-03-01T06:17:14;20.00;;;6.57;;
70549;SDS011;58101;48.658;2.328;2023-03-01T06:19:40;14.40;;;6.32;;
70549;SDS011;58101;48.658;2.328;2023-03-01T06:22:06;16.17;;;6.63;;
70549;SDS011;58101;48.658;2.328;2023-03-01T06:24:31;14.77;;;6.05;;
70549;SDS011;58101;48.658;2.328;2023-03-01T06:26:58;19.92;;;7.07;;
70549;SDS011;58101;48.658;2.328;2023-03-01T06:29:23;17.45;;;6.47;;
70549;SDS011;58101;48.658;2.328;2023-03-01T06:31:49;17.50;;;6.78;;
70549;SDS011;58101;48.658;2.328;2023-03-01T06:34:14;17.70;;;7.00;;
70549;SDS011;58101;48.658;2.328;2023-03-01T06:36:40;16.55;;;6.40;;
70549;SDS011;58101;48.658;2.328;2023-03-01T06:39:06;14.57;;;5.93;;
70549;SDS011;58101;48.658;2.328;2023-03-01T06:41:32;19.27;;;6.13;;
70549;SDS011;58101;48.658;2.328;2023-03-01T06:43:58;18.60;;;7.70;;
70549;SDS011;58101;48.658;2.328;2023-03-01T06:46:24;20.73;;;7.35;;
70549;SDS011;58101;48.658;2.328;2023-03-01T06:48:50;18.38;;;7.00;;
70549;SDS011;58101;48.658;2.328;2023-03-01T06:51:16;20.27;;;6.90;;
70549;SDS011;58101;48.658;2.328;2023-03-01T06:53:41;22.45;;;6.95;;
70549;SDS011;58101;48.658;2.328;2023-03-01T06:56:07;16.33;;;6.68;;
70549;SDS011;58101;48.658;2.328;2023-03-01T06:58:33;16.65;;;6.88;;
70549;SDS011;58101;48.658;2.328;2023-03-01T07:00:59;17.05;;;7.03;;
70549;SDS011;58101;48.658;2.328;2023-03-01T07:03:25;19.45;;;7.60;;
70549;SDS011;58101;48.658;2.328;2023-03-01T07:05:50;17.35;;;7.07;;
70549;SDS011;58101;48.658;2.328;2023-03-01T07:08:17;20.30;;;7.15;;
70549;SDS011;58101;48.658;2.328;2023-03-01T07:10:43;15.68;;;6.80;;
70549;SDS011;58101;48.658;2.328;2023-03-01T07:13:09;19.05;;;7.25;;
70549;SDS011;58101;48.658;2.328;2023-03-01T07:15:35;17.27;;;7.18;;
70549;SDS011;58101;48.658;2.328;2023-03-01T07:18:00;19.38;;;7.10;;
70549;SDS011;58101;48.658;2.328;2023-03-01T07:20:26;21.70;;;8.02;;
70549;SDS011;58101;48.658;2.328;2023-03-01T07:22:52;20.02;;;7.68;;
70549;SDS011;58101;48.658;2.328;2023-03-01T07:25:18;20.75;;;8.23;;
70549;SDS011;58101;48.658;2.328;2023-03-01T07:27:48;20.23;;;8.00;;
70549;SDS011;58101;48.658;2.328;2023-03-01T07:30:17;24.00;;;8.25;;
70549;SDS011;58101;48.658;2.328;2023-03-01T07:32:43;20.33;;;7.70;;
70549;SDS011;58101;48.658;2.328;2023-03-01T07:35:10;20.50;;;7.63;;
70549;SDS011;58101;48.658;2.328;2023-03-01T07:37:36;21.42;;;8.35;;
70549;SDS011;58101;48.658;2.328;2023-03-01T07:40:01;24.50;;;8.43;;
70549;SDS011;58101;48.658;2.328;2023-03-01T07:42:27;20.75;;;8.18;;
70549;SDS011;58101;48.658;2.328;2023-03-01T07:44:53;21.60;;;8.18;;
70549;SDS011;58101;48.658;2.328;2023-03-01T07:47:18;20.42;;;7.65;;
70549;SDS011;58101;48.658;2.328;2023-03-01T07:49:44;22.67;;;8.90;;
70549;SDS011;58101;48.658;2.328;2023-03-01T07:52:10;17.95;;;8.02;;
70549;SDS011;58101;48.658;2.328;2023-03-01T07:54:36;21.63;;;8.10;;
70549;SDS011;58101;48.658;2.328;2023-03-01T07:57:03;20.08;;;8.05;;
70549;SDS011;58101;48.658;2.328;2023-03-01T07:59:28;22.70;;;8.70;;
70549;SDS011;58101;48.658;2.328;2023-03-01T08:01:57;22.05;;;8.65;;
70549;SDS011;58101;48.658;2.328;2023-03-01T08:04:23;18.48;;;8.00;;
70549;SDS011;58101;48.658;2.328;2023-03-01T08:06:51;19.48;;;8.82;;
70549;SDS011;58101;48.658;2.328;2023-03-01T08:09:17;21.60;;;8.38;;
70549;SDS011;58101;48.658;2.328;2023-03-01T08:11:43;18.80;;;7.88;;
70549;SDS011;58101;48.658;2.328;2023-03-01T08:14:09;21.30;;;8.80;;
70549;SDS011;58101;48.658;2.328;2023-03-01T08:16:35;19.23;;;8.75;;
70549;SDS011;58101;48.658;2.328;2023-03-01T08:19:05;17.00;;;8.13;;
70549;SDS011;58101;48.658;2.328;2023-03-01T08:21:31;19.50;;;8.80;;
70549;SDS011;58101;48.658;2.328;2023-03-01T08:23:59;18.08;;;9.25;;
70549;SDS011;58101;48.658;2.328;2023-03-01T08:26:29;19.42;;;8.93;;
70549;SDS011;58101;48.658;2.328;2023-03-01T08:28:55;19.45;;;9.77;;
70549;SDS011;58101;48.658;2.328;2023-03-01T08:31:25;17.75;;;9.23;;
70549;SDS011;58101;48.658;2.328;2023-03-01T08:33:54;20.42;;;9.52;;
70549;SDS011;58101;48.658;2.328;2023-03-01T08:36:32;16.80;;;9.10;;
70549;SDS011;58101;48.658;2.328;2023-03-01T08:39:00;17.20;;;9.15;;
70549;SDS011;58101;48.658;2.328;2023-03-01T08:41:26;17.33;;;9.25;;
70549;SDS011;58101;48.658;2.328;2023-03-01T08:43:52;16.75;;;8.80;;
70549;SDS011;58101;48.658;2.328;2023-03-01T08:46:23;16.73;;;9.20;;
70549;SDS011;58101;48.658;2.328;2023-03-01T08:48:53;17.58;;;9.52;;
70549;SDS011;58101;48.658;2.328;2023-03-01T08:51:22;18.02;;;9.73;;
70549;SDS011;58101;48.658;2.328;2023-03-01T08:53:48;18.27;;;9.85;;
70549;SDS011;58101;48.658;2.328;2023-03-01T08:56:15;15.93;;;9.50;;
70549;SDS011;58101;48.658;2.328;2023-03-01T08:58:45;15.77;;;9.07;;
70549;SDS011;58101;48.658;2.328;2023-03-01T09:01:13;15.35;;;8.90;;
70549;SDS011;58101;48.658;2.328;2023-03-01T09:03:41;15.57;;;9.18;;
70549;SDS011;58101;48.658;2.328;2023-03-01T09:08:43;17.35;;;10.25;;
70549;SDS011;58101;48.658;2.328;2023-03-01T09:11:11;18.20;;;9.32;;
70549;SDS011;58101;48.658;2.328;2023-03-01T09:13:40;15.88;;;9.88;;
70549;SDS011;58101;48.658;2.328;2023-03-01T09:16:06;14.40;;;8.77;;
70549;SDS011;58101;48.658;2.328;2023-03-01T09:18:32;16.05;;;9.18;;
70549;SDS011;58101;48.658;2.328;2023-03-01T09:23:42;16.02;;;9.48;;
70549;SDS011;58101;48.658;2.328;2023-03-01T09:26:10;15.65;;;9.32;;
70549;SDS011;58101;48.658;2.328;2023-03-01T09:28:47;21.38;;;9.40;;
70549;SDS011;58101;48.658;2.328;2023-03-01T09:31:14;16.30;;;9.30;;
70549;SDS011;58101;48.658;2.328;2023-03-01T09:33:41;14.88;;;9.10;;
70549;SDS011;58101;48.658;2.328;2023-03-01T09:36:11;17.10;;;9.70;;
70549;SDS011;58101;48.658;2.328;2023-03-01T09:38:39;18.98;;;10.57;;
70549;SDS011;58101;48.658;2.328;2023-03-01T09:41:18;17.10;;;10.13;;
70549;SDS011;58101;48.658;2.328;2023-03-01T09:44:00;18.10;;;9.10;;
70549;SDS011;58101;48.658;2.328;2023-03-01T09:46:47;15.55;;;9.25;;
70549;SDS011;58101;48.658;2.328;2023-03-01T09:49:31;16.77;;;9.23;;
70549;SDS011;58101;48.658;2.328;2023-03-01T09:54:29;15.85;;;8.98;;
70549;SDS011;58101;48.658;2.328;2023-03-01T10:02:39;14.32;;;8.60;;
70549;SDS011;58101;48.658;2.328;2023-03-01T10:05:24;15.50;;;8.40;;
70549;SDS011;58101;48.658;2.328;2023-03-01T10:08:04;14.85;;;8.80;;
70549;SDS011;58101;48.658;2.328;2023-03-01T10:10:45;14.55;;;8.65;;
70549;SDS011;58101;48.658;2.328;2023-03-01T10:15:44;13.25;;;8.80;;
70549;SDS011;58101;48.658;2.328;2023-03-01T10:18:26;18.95;;;11.20;;
70549;SDS011;58101;48.658;2.328;2023-03-01T10:20:55;15.60;;;9.55;;
70549;SDS011;58101;48.658;2.328;2023-03-01T10:23:27;18.25;;;10.23;;
70549;SDS011;58101;48.658;2.328;2023-03-01T10:34:14;14.48;;;9.00;;
70549;SDS011;58101;48.658;2.328;2023-03-01T10:36:41;15.10;;;9.35;;
70549;SDS011;58101;48.658;2.328;2023-03-01T10:39:12;18.38;;;9.38;;
70549;SDS011;58101;48.658;2.328;2023-03-01T10:41:55;15.25;;;9.52;;
70549;SDS011;58101;48.658;2.328;2023-03-01T10:44:40;14.25;;;9.35;;
70549;SDS011;58101;48.658;2.328;2023-03-01T10:47:11;15.75;;;9.82;;
70549;SDS011;58101;48.658;2.328;2023-03-01T10:50:02;16.67;;;9.18;;
70549;SDS011;58101;48.658;2.328;2023-03-01T10:52:34;15.15;;;9.50;;
70549;SDS011;58101;48.658;2.328;2023-03-01T10:55:03;17.88;;;10.25;;
70549;SDS011;58101;48.658;2.328;2023-03-01T10:57:41;15.70;;;9.60;;
70549;SDS011;58101;48.658;2.328;2023-03-01T11:02:46;16.80;;;9.77;;
70549;SDS011;58101;48.658;2.328;2023-03-01T11:05:22;17.90;;;9.23;;
70549;SDS011;58101;48.658;2.328;2023-03-01T11:10:23;13.73;;;9.07;;
70549;SDS011;58101;48.658;2.328;2023-03-01T11:12:50;16.15;;;9.80;;
70549;SDS011;58101;48.658;2.328;2023-03-01T11:15:20;16.00;;;9.85;;
70549;SDS011;58101;48.658;2.328;2023-03-01T11:17:49;16.02;;;9.27;;
70549;SDS011;58101;48.658;2.328;2023-03-01T11:22:44;14.85;;;9.38;;
70549;SDS011;58101;48.658;2.328;2023-03-01T11:25:19;17.50;;;10.18;;
70549;SDS011;58101;48.658;2.328;2023-03-01T11:27:52;14.68;;;9.73;;
70549;SDS011;58101;48.658;2.328;2023-03-01T11:30:29;16.00;;;9.45;;
70549;SDS011;58101;48.658;2.328;2023-03-01T11:33:10;16.90;;;9.70;;
70549;SDS011;58101;48.658;2.328;2023-03-01T11:38:26;16.70;;;10.05;;
70549;SDS011;58101;48.658;2.328;2023-03-01T11:40:59;17.10;;;9.68;;
70549;SDS011;58101;48.658;2.328;2023-03-01T11:43:52;17.83;;;9.63;;
70549;SDS011;58101;48.658;2.328;2023-03-01T11:52:13;16.20;;;9.50;;
70549;SDS011;58101;48.658;2.328;2023-03-01T11:55:16;16.73;;;9.35;;
70549;SDS011;58101;48.658;2.328;2023-03-01T11:57:59;15.25;;;9.35;;
70549;SDS011;58101;48.658;2.328;2023-03-01T12:01:01;19.50;;;10.15;;
70549;SDS011;58101;48.658;2.328;2023-03-01T12:45:30;21.70;;;10.13;;
70549;SDS011;58101;48.658;2.328;2023-03-01T12:50:54;20.23;;;10.25;;
70549;SDS011;58101;48.658;2.328;2023-03-01T12:53:34;20.90;;;9.90;;
70549;SDS011;58101;48.658;2.328;2023-03-01T13:01:34;20.58;;;10.30;;
70549;SDS011;58101;48.658;2.328;2023-03-01T13:15:23;21.67;;;10.18;;
70549;SDS011;58101;48.658;2.328;2023-03-01T13:17:53;20.17;;;10.10;;
70549;SDS011;58101;48.658;2.328;2023-03-01T13:20:23;19.30;;;9.63;;
70549;SDS011;58101;48.658;2.328;2023-03-01T13:25:59;18.90;;;9.88;;
70549;SDS011;58101;48.658;2.328;2023-03-01T13:30:57;19.15;;;10.25;;
70549;SDS011;58101;48.658;2.328;2023-03-01T13:35:52;22.35;;;10.77;;
70549;SDS011;58101;48.658;2.328;2023-03-01T13:46:50;19.70;;;9.68;;
70549;SDS011;58101;48.658;2.328;2023-03-01T13:52:54;21.98;;;10.05;;
70549;SDS011;58101;48.658;2.328;2023-03-01T13:55:16;19.63;;;10.38;;
70549;SDS011;58101;48.658;2.328;2023-03-01T13:58:05;23.67;;;11.05;;
70549;SDS011;58101;48.658;2.328;2023-03-01T14:00:38;22.77;;;10.88;;
70549;SDS011;58101;48.658;2.328;2023-03-01T14:03:18;21.60;;;10.18;;
70549;SDS011;58101;48.658;2.328;2023-03-01T14:08:26;20.80;;;10.13;;
70549;SDS011;58101;48.658;2.328;2023-03-01T14:19:27;19.70;;;9.35;;
70549;SDS011;58101;48.658;2.328;2023-03-01T14:21:59;20.40;;;9.32;;
70549;SDS011;58101;48.658;2.328;2023-03-01T14:24:28;22.52;;;10.25;;
70549;SDS011;58101;48.658;2.328;2023-03-01T14:26:57;20.45;;;9.57;;
70549;SDS011;58101;48.658;2.328;2023-03-01T14:29:27;20.02;;;9.45;;
70549;SDS011;58101;48.658;2.328;2023-03-01T14:34:47;20.33;;;10.05;;
70549;SDS011;58101;48.658;2.328;2023-03-01T14:39:45;19.13;;;9.20;;
70549;SDS011;58101;48.658;2.328;2023-03-01T14:42:11;20.15;;;9.52;;
70549;SDS011;58101;48.658;2.328;2023-03-01T14:44:40;25.55;;;10.10;;
70549;SDS011;58101;48.658;2.328;2023-03-01T14:47:15;21.95;;;10.35;;
70549;SDS011;58101;48.658;2.328;2023-03-01T14:49:49;23.08;;;10.60;;
70549;SDS011;58101;48.658;2.328;2023-03-01T14:52:25;22.83;;;10.10;;
70549;SDS011;58101;48.658;2.328;2023-03-01T14:54:56;19.27;;;9.38;;
70549;SDS011;58101;48.658;2.328;2023-03-01T14:57:23;21.02;;;9.48;;
70549;SDS011;58101;48.658;2.328;2023-03-01T14:59:51;19.35;;;9.65;;
70549;SDS011;58101;48.658;2.328;2023-03-01T15:02:20;22.58;;;9.93;;
70549;SDS011;58101;48.658;2.328;2023-03-01T15:04:49;22.15;;;9.98;;
70549;SDS011;58101;48.658;2.328;2023-03-01T15:07:23;19.38;;;9.57;;
70549;SDS011;58101;48.658;2.328;2023-03-01T15:10:19;21.00;;;9.65;;
70549;SDS011;58101;48.658;2.328;2023-03-01T15:12:49;22.58;;;10.68;;
70549;SDS011;58101;48.658;2.328;2023-03-01T15:18:16;23.80;;;9.90;;
70549;SDS011;58101;48.658;2.328;2023-03-01T15:20:44;20.40;;;10.15;;
70549;SDS011;58101;48.658;2.328;2023-03-01T15:23:18;22.50;;;10.40;;
70549;SDS011;58101;48.658;2.328;2023-03-01T15:25:49;21.73;;;10.50;;
70549;SDS011;58101;48.658;2.328;2023-03-01T15:28:21;23.58;;;10.23;;
70549;SDS011;58101;48.658;2.328;2023-03-01T15:31:12;20.83;;;10.90;;
70549;SDS011;58101;48.658;2.328;2023-03-01T15:33:49;21.10;;;9.98;;
70549;SDS011;58101;48.658;2.328;2023-03-01T15:42:04;20.88;;;9.65;;
70549;SDS011;58101;48.658;2.328;2023-03-01T15:44:35;21.35;;;9.88;;
70549;SDS011;58101;48.658;2.328;2023-03-01T15:47:08;22.60;;;10.57;;
70549;SDS011;58101;48.658;2.328;2023-03-01T15:49:54;19.30;;;9.75;;
70549;SDS011;58101;48.658;2.328;2023-03-01T15:54:55;24.77;;;10.95;;
70549;SDS011;58101;48.658;2.328;2023-03-01T15:57:31;21.38;;;9.95;;
70549;SDS011;58101;48.658;2.328;2023-03-01T16:00:09;23.23;;;10.00;;
70549;SDS011;58101;48.658;2.328;2023-03-01T16:02:39;20.92;;;9.73;;
70549;SDS011;58101;48.658;2.328;2023-03-01T16:07:42;20.67;;;9.80;;
70549;SDS011;58101;48.658;2.328;2023-03-01T16:10:08;21.88;;;10.05;;
70549;SDS011;58101;48.658;2.328;2023-03-01T16:12:34;22.65;;;10.05;;
70549;SDS011;58101;48.658;2.328;2023-03-01T16:15:19;19.65;;;9.65;;
70549;SDS011;58101;48.658;2.328;2023-03-01T16:17:46;20.90;;;9.55;;
70549;SDS011;58101;48.658;2.328;2023-03-01T16:20:12;21.75;;;9.55;;
70549;SDS011;58101;48.658;2.328;2023-03-01T16:22:52;22.35;;;9.85;;
70549;SDS011;58101;48.658;2.328;2023-03-01T16:25:19;21.50;;;9.55;;
70549;SDS011;58101;48.658;2.328;2023-03-01T16:27:47;22.40;;;9.63;;
70549;SDS011;58101;48.658;2.328;2023-03-01T16:30:14;20.30;;;9.10;;
70549;SDS011;58101;48.658;2.328;2023-03-01T16:32:43;24.20;;;9.93;;
70549;SDS011;58101;48.658;2.328;2023-03-01T16:35:11;21.05;;;9.75;;
70549;SDS011;58101;48.658;2.328;2023-03-01T16:37:38;22.92;;;9.65;;
70549;SDS011;58101;48.658;2.328;2023-03-01T16:40:05;21.45;;;9.82;;
70549;SDS011;58101;48.658;2.328;2023-03-01T16:42:36;22.08;;;10.00;;
70549;SDS011;58101;48.658;2.328;2023-03-01T16:45:02;23.60;;;10.35;;
70549;SDS011;58101;48.658;2.328;2023-03-01T16:47:29;22.85;;;9.98;;
70549;SDS011;58101;48.658;2.328;2023-03-01T16:49:54;21.85;;;9.93;;
70549;SDS011;58101;48.658;2.328;2023-03-01T16:52:21;23.92;;;10.52;;
70549;SDS011;58101;48.658;2.328;2023-03-01T16:54:47;23.95;;;11.27;;
70549;SDS011;58101;48.658;2.328;2023-03-01T16:57:13;24.83;;;11.82;;
70549;SDS011;58101;48.658;2.328;2023-03-01T16:59:39;24.48;;;11.40;;
70549;SDS011;58101;48.658;2.328;2023-03-01T17:02:05;27.55;;;11.32;;
70549;SDS011;58101;48.658;2.328;2023-03-01T17:04:35;22.77;;;10.68;;
70549;SDS011;58101;48.658;2.328;2023-03-01T17:07:01;22.95;;;10.23;;
70549;SDS011;58101;48.658;2.328;2023-03-01T17:09:27;21.75;;;10.32;;
70549;SDS011;58101;48.658;2.328;2023-03-01T17:11:53;23.30;;;10.27;;
70549;SDS011;58101;48.658;2.328;2023-03-01T17:14:19;20.83;;;10.13;;
70549;SDS011;58101;48.658;2.328;2023-03-01T17:16:45;25.45;;;11.02;;
70549;SDS011;58101;48.658;2.328;2023-03-01T17:19:11;24.70;;;10.68;;
70549;SDS011;58101;48.658;2.328;2023-03-01T17:21:42;26.33;;;10.75;;
70549;SDS011;58101;48.658;2.328;2023-03-01T17:24:11;20.50;;;10.07;;
70549;SDS011;58101;48.658;2.328;2023-03-01T17:26:37;22.73;;;10.25;;
70549;SDS011;58101;48.658;2.328;2023-03-01T17:29:03;20.98;;;10.18;;
70549;SDS011;58101;48.658;2.328;2023-03-01T17:31:29;27.77;;;11.18;;
70549;SDS011;58101;48.658;2.328;2023-03-01T17:33:56;25.80;;;10.15;;
70549;SDS011;58101;48.658;2.328;2023-03-01T17:36:22;24.65;;;10.70;;
70549;SDS011;58101;48.658;2.328;2023-03-01T17:38:48;24.35;;;10.60;;
70549;SDS011;58101;48.658;2.328;2023-03-01T17:41:14;22.10;;;10.35;;
70549;SDS011;58101;48.658;2.328;2023-03-01T17:43:42;22.25;;;9.93;;
70549;SDS011;58101;48.658;2.328;2023-03-01T17:46:11;22.35;;;10.00;;